Tiempo atmosférico en la estación meteorológica de Molina De Aragón, Guadalajara (1056 m.)



Fecha
DESCASC
Temp. máxima en grados centígrados (hora)
DESCASC
Temp. mínima en grados centígrados (hora)
DESCASC
Temp. media en grados centígrados
DESCASC
Racha de viento máxima en m/sg (hora)
DESCASC
Velocidad máxima media en intervalos de 10 minutos(hora)
DESCASC
Precipitaciones diarias en mm
DESCASC
Precipitaciones de 00:00 a 06:00 en mm
DESCASC
Precipitaciones de 06:00 a 12:00 en mm
DESCASC
Precipitaciones de 12:00 a 18:00 en mm
DESCASC
Precipitaciones de 18:00 a 24:00 en mm
DESCASC
11-12-2019 5.2 (15:20) -3.8 (07:20) 0.7 10 (17:30) 5 (16:40) 0 0 0 0 0
10-12-2019 11.2 (15:30) -5 (08:40) 3.1 3.33 (14:40) 2.22 (14:50) 0 0 0 0 0
09-12-2019 10 (12:30) -1 (08:40) 4.5 9.72 (12:40) 4.72 (13:50) 0 0 0 0 0
08-12-2019 11.1 (14:50) -2.4 (-00:0) 4.4 8.89 (15:20) 3.89 (15:20) 3.2 0 0 0.4 2.8
07-12-2019 11.2 (17:00) -0.9 (-00:0) 5.1 2.22 (14:20) 1.11 (14:20) 0 0 0 0 0
06-12-2019 11.2 (14:10) -0.3 (00:00) 5.4 4.44 (11:20) 2.22 (00:30) 0 0 0 0 0
05-12-2019 5.9 (16:20) 4 (00:00) 5 8.61 (02:50) 4.44 (03:00) 0 0 0 0 0
04-12-2019 5.2 (15:20) 1 (00:00) 3.1 8.33 (17:40) 4.17 (17:10) 1.4 0 0.4 0.6 0.4
03-12-2019 5 (15:00) 0.3 (00:00) 2.7 6.39 (11:40) 3.61 (11:30) 2.6 0 0 0 2.6
02-12-2019 6.5 (14:10) 2.3 (00:00) 4.4 6.94 (15:50) 3.89 (16:10) 0 0 0 0 0
01-12-2019 9 (12:40) 1.4 (00:00) 5.2 6.39 (12:30) 3.33 (13:40) 1.6 1.6 0 0 0
30-11-2019 12.1 (12:20) 3.9 (00:00) 8 10 (22:10) 4.17 (18:30) 6.2 0 0 0 6.2
29-11-2019 13.1 (14:30) 8.4 (00:00) 10.8 10.28 (00:10) 4.72 (00:10) 0.6 0.4 0.2 0 0
28-11-2019 10.3 (13:10) 6.1 (00:00) 8.2 10 (12:40) 5.28 (22:40) 0 0 0 0 0
27-11-2019 11.2 (13:50) 7.1 (00:00) 9.1 16.67 (01:50) 7.78 (01:50) 0.2 0.2 0 0 0
26-11-2019 13.4 (13:20) 6.3 (00:00) 9.8 13.61 (23:59) 7.78 (23:59) 0 0 0 0 0
25-11-2019 11.5 (15:30) 4.5 (00:00) 8 9.17 (04:40) 4.72 (06:50) 0.8 0.8 0 0 0
24-11-2019 8.8 (14:40) 3.3 (00:00) 6.1 9.72 (04:40) 5 (10:40) 0 0 0 0 0
23-11-2019 7.7 (15:00) 2.7 (00:00) 5.2 12.5 (14:50) 6.39 (16:20) 5.2 2.8 2.4 0 0
22-11-2019 10.7 (13:30) 2.5 (00:00) 6.6 11.94 (14:20) 5.56 (14:00) 1.2 0 0 1 0.2
21-11-2019 -- (--) -- (--) -- -- (--) -- (--) -- 0 -- 0 0.2
20-11-2019 8.6 (13:30) -3.4 (-00:0) 2.6 7.5 (16:40) 3.89 (15:50) 0 0 0 0 0
19-11-2019 7.9 (13:40) -5.6 (-00:0) 1.2 7.5 (13:50) 3.33 (13:50) 0 0 0 0 0
18-11-2019 6.3 (15:30) -1.4 (-00:0) 2.5 10.28 (15:50) 5.28 (16:00) 0 0 0 0 0
17-11-2019 7.1 (12:40) -3.3 (-00:0) 1.9 9.72 (13:20) 5.28 (13:30) 1.6 0 0 1 0.6
16-11-2019 6.4 (16:00) -1.6 (-00:0) 2.4 7.78 (17:00) 3.61 (15:30) 0 0 0 0 0
15-11-2019 5.6 (13:10) 0.1 (00:00) 2.8 9.72 (13:00) 5.28 (12:40) 0.8 0 0 0 0.8

Gráficas

Temp. máximas Temp. mínimas Temp. medias Precipitaciones Rachas de viento máximas Velocidades máximas media en intervalos de 10 minutos

Datos horarios

Fecha y hora oficial Temperatura (ºC) Velocidad del viento (km/h) Dirección del viento Racha (km/h) Dirección de racha Precipitación (mm) Presión (hPa) Tendencia (hPa) Humedad (%)
2019-12-14 23:00:00 6.4 9 Sudoeste 28 Oeste 0 896.2 -0.4 80
2019-12-14 22:00:00 6.9 13 Sudoeste 26 Sudoeste 0 896.6 0.4 78
2019-12-14 21:00:00 6.8 10 Sudoeste 20 Sudoeste 0 896.7 0.6 78
2019-12-14 20:00:00 6.9 9 Sudoeste 27 Oeste 0 896.6 0.6 79
2019-12-14 19:00:00 7.1 11 Sudoeste 29 Sudoeste 0 896.2 0.2 78
2019-12-14 18:00:00 7.3 11 Sudoeste 25 Sudoeste 0 896.1 0 77
2019-12-14 17:00:00 7.8 12 Sudoeste 28 Sudoeste 0 896 -0.6 74
2019-12-14 16:00:00 8.1 14 Sudoeste 31 Oeste 0 896 -1 71
2019-12-14 15:00:00 8.1 13 Sudoeste 31 Oeste 0 896.1 -1.6 73
2019-12-14 14:00:00 8.3 12 Sudoeste 30 Sudoeste 0 896.6 -1.5 73
2019-12-14 13:00:00 7.9 14 Oeste 27 Oeste 0 897 -0.7 77
2019-12-14 12:00:00 7.4 12 Oeste 22 Oeste 0 897.7 0.6 80
2019-12-14 11:00:00 7.1 9 Oeste 22 Oeste 0 898.1 1.6 81
2019-12-14 10:00:00 6.7 10 Oeste 22 Oeste 0 897.7 1.3 84
2019-12-14 09:00:00 6.5 10 Oeste 22 Oeste 0 897.1 0.9 86
2019-12-14 08:00:00 6.3 11 Oeste 23 Oeste 0 896.5 0.6 87
2019-12-14 07:00:00 6.1 9 Oeste 25 Oeste 0 896.4 0.1 89
2019-12-14 06:00:00 5.5 13 Oeste 24 Oeste 0 896.2 -0.3 91
2019-12-14 05:00:00 5.6 10 Oeste 22 Oeste 0 895.9 0.1 90
2019-12-14 04:00:00 5.8 10 Oeste 26 Oeste 0 896.3 0.3 90
2019-12-14 03:00:00 6.4 14 Oeste 39 Sudoeste 0 896.5 1.2 87
2019-12-14 02:00:00 6.8 19 Oeste 37 Oeste 0 895.8 0.9 86
2019-12-14 01:00:00 6.9 14 Oeste 32 Sudoeste 0 896 1.2 84
2019-12-14 00:00:00 7.6 15 Oeste 33 Oeste 0 895.3 0.8 82
2019-12-13 23:00:00 8.6 16 Oeste 43 Oeste 0 894.9 1 80
2019-12-13 22:00:00 9.4 16 Oeste 34 Sudoeste 0 894.8 0.9 80
2019-12-13 21:00:00 10 17 Oeste 44 Sudoeste 0 894.5 0.9 78
2019-12-13 20:00:00 10.1 12 Oeste 30 Oeste 0 893.9 0.6 80
2019-12-13 19:00:00 10.5 16 Oeste 35 Oeste 0 893.9 1.6 79
2019-12-13 18:00:00 11.1 14 Oeste 33 Sudoeste 0 893.6 1.4 76
2019-12-13 17:00:00 11.7 12 Oeste 36 Oeste 0 893.3 0.9 73
2019-12-13 16:00:00 12.3 16 Oeste 37 Oeste 0 892.3 0 73
2019-12-13 15:00:00 12 16 Oeste 37 Oeste 0 892.2 -0.8 74
2019-12-13 14:00:00 12 17 Oeste 37 Oeste 0 892.4 0.2 72
2019-12-13 13:00:00 11.5 23 Oeste 43 Sudoeste 0 892.3 0.6 73
2019-12-13 12:00:00 10.2 17 Oeste 47 Oeste 0 893 2 78
2019-12-13 11:00:00 9.8 22 Oeste 46 Sudoeste 0 892.2 2 79
2019-12-13 10:00:00 9.3 23 Oeste 42 Oeste 0 891.7 1.8 83
2019-12-13 09:00:00 9.1 20 Oeste 41 Oeste 0 891 1.3 85
2019-12-13 08:00:00 9.3 19 Oeste 45 Oeste 0 890.2 0.4 85
2019-12-13 07:00:00 9.5 21 Oeste 40 Oeste 0 889.9 0 88
2019-12-13 06:00:00 9.2 21 Oeste 44 Oeste 0.2 889.7 0 91
2019-12-13 05:00:00 8.7 12 Sudoeste 33 Sudoeste 0 889.8 0.2 94
2019-12-13 04:00:00 8.7 15 Oeste 38 Oeste 0 889.9 -0.1 91
2019-12-13 03:00:00 8.3 13 Sudoeste 36 Sudoeste 0 889.7 -0.5 93
2019-12-13 02:00:00 8 15 Sudoeste 38 Oeste 0 889.6 -0.6 93
2019-12-13 01:00:00 7.6 18 Sudoeste 39 Oeste 0 890 0.2 94
2019-12-13 00:00:00 7.4 14 Sudoeste 43 Oeste 0 890.2 -0.5 94
2019-12-12 23:00:00 7 18 Sudoeste 41 Oeste 0 890.2 -0.4 94
2019-12-12 22:00:00 6.4 17 Sudoeste 38 Sudoeste 0.2 889.8 -0.9 96
2019-12-12 21:00:00 5.9 14 Sudoeste 37 Oeste 0.4 890.7 -0.4 96
2019-12-12 20:00:00 5.5 20 Oeste 33 Oeste 0.4 890.6 -0.8 94
2019-12-12 19:00:00 4.7 15 Sudoeste 36 Oeste 0.4 890.7 -1.5 94
2019-12-12 18:00:00 4 16 Sudoeste 39 Oeste 0.6 891.1 -2.2 94
2019-12-12 17:00:00 3.6 14 Sudoeste 36 Oeste 0.4 891.4 -2.4 93
2019-12-12 16:00:00 3.2 11 Sudoeste 40 Sudoeste 1.2 892.2 -2.6 93
2019-12-12 15:00:00 3.6 17 Sudoeste 36 Sudoeste 0.4 893.3 -3.1 90
2019-12-12 14:00:00 4.7 17 Sudoeste 41 Oeste 0 893.8 -3.3 81
2019-12-12 13:00:00 4.8 21 Sudoeste 39 Sudoeste 0 894.8 -2.6 80
2019-12-12 12:00:00 4.2 18 Oeste 37 Sudoeste 0 896.4 -1.3 82
2019-12-12 11:00:00 3.9 12 Oeste 28 Sudoeste 0 897.1 -0.8 82
2019-12-12 10:00:00 2.6 11 Oeste 22 Sudoeste 0 897.4 -0.4 85
2019-12-12 09:00:00 1.5 5 Noroeste 15 Noroeste 0 897.7 -0.4 87
2019-12-12 08:00:00 1.4 6 Oeste 15 Oeste 0 897.9 -0.4 87
2019-12-12 07:00:00 0.6 3 Sudoeste 9 Norte 0 897.8 -1.2 89
2019-12-12 06:00:00 1.1 3 Noroeste 19 Oeste 0 898.1 -1.6 86
2019-12-12 05:00:00 1.3 10 Oeste 23 Oeste 0 898.3 -1.6 85
2019-12-12 04:00:00 0.7 9 Oeste 21 Noroeste 0 899 -1.1 86
2019-12-12 03:00:00 1 5 Oeste 18 Oeste 0 899.7 -0.9 84
2019-12-12 02:00:00 0.9 8 Oeste 15 Oeste 0 899.9 -0.8 84
2019-12-12 01:00:00 0.7 5 Oeste 17 Oeste 0 900.1 -1 85
2019-12-12 00:00:00 0.4 6 Oeste 21 Oeste 0 900.6 -0.6 86
2019-12-11 23:00:00 0.5 9 Oeste 15 Oeste 0 900.7 -0.2 86
2019-12-11 22:00:00 1.4 3 Noroeste 17 Oeste 0 901.1 0.3 80
2019-12-11 21:00:00 1.6 7 Noroeste 14 Noroeste 0 901.2 0.7 87
2019-12-11 20:00:00 2.3 11 Oeste 18 Oeste 0 900.9 0.8 87
2019-12-11 19:00:00 2.8 11 Oeste 22 Oeste 0 900.8 1.6 82
2019-12-11 18:00:00 3.4 9 Oeste 36 Oeste 0 900.5 1.4 76
2019-12-11 17:00:00 4.9 13 Oeste 34 Oeste 0 900.1 1.2 76
2019-12-11 16:00:00 5 11 Oeste 25 Oeste 0 899.2 0.3 85
2019-12-11 15:00:00 5 11 Oeste 25 Oeste 0 899.1 -0.2 88
2019-12-11 14:00:00 5 12 Oeste 22 Sudoeste 0 898.9 -0.8 88
2019-12-11 13:00:00 4.4 9 Noroeste 17 Noroeste 0 898.9 -0.6 86
2019-12-11 12:00:00 3.1 7 Oeste 14 Oeste 0 899.3 -0.3 89
2019-12-11 11:00:00 0.2 4 Oeste 12 Oeste 0 899.7 0 96
2019-12-11 10:00:00 -1.4 3 Sudoeste 5 Sudeste 0 899.5 -0.3 98
2019-12-11 09:00:00 -3.4 0 Calma 4 Nordeste 0 899.6 -0.4 96
2019-12-11 08:00:00 -3.8 2 Nordeste 5 Sudeste 0 899.7 -0.9 95
2019-12-11 07:00:00 -3.6 2 Este 4 Este 0 899.8 -1.4 96
2019-12-11 06:00:00 -3.3 0 Calma 6 Sudeste 0 900 -1.6 95
2019-12-11 05:00:00 -2.9 0 Calma 5 Este 0 900.6 -1.4 95
2019-12-11 04:00:00 -2.6 2 Sudeste 5 Sudeste 0 901.2 -1.3 96
2019-12-11 03:00:00 -2.4 0 Calma 4 Sudeste 0 901.6 -1.3 95
2019-12-11 02:00:00 -2.3 2 Nordeste 5 Este 0 902 -1.2 94
2019-12-11 01:00:00 -1.6 2 Nordeste 5 Este 0 902.5 -0.8 92
2019-12-11 00:00:00 -1 2 Nordeste 5 Nordeste 0 902.9 -0.4 94
2019-12-10 23:00:00 -1.1 0 Calma 5 Este 0 903.2 -0.3 93
2019-12-10 22:00:00 -0.6 3 Este 5 Este 0 903.3 -0.2 92
2019-12-10 21:00:00 0.5 0 Calma 7 Este 0 903.3 0 87
2019-12-10 20:00:00 2.1 3 Este 7 Sudeste 0 903.5 0.3 82
2019-12-10 19:00:00 4.5 2 Este 9 Este 0 903.5 -0.1 76
2019-12-10 18:00:00 7.9 0 Calma 6 Sur 0 903.3 -0.7 63
2019-12-10 17:00:00 10.4 0 Calma 10 Oeste 0 903.2 -1.7 59
2019-12-10 16:00:00 11 4 Sudoeste 10 Oeste 0 903.6 -2.1 53
2019-12-10 15:00:00 10.9 5 Oeste 12 Oeste 0 904 -2.5 53
2019-12-10 14:00:00 10.9 4 Oeste 9 Oeste 0 904.9 -1.9 53
2019-12-10 13:00:00 7.8 2 Sudoeste 8 Este 0 905.7 -1.3 69
2019-12-10 12:00:00 4.2 3 Sudeste 6 Sudeste 0 906.5 -0.5 79
2019-12-10 11:00:00 0.4 0 Calma 7 Oeste 0 906.8 0.2 91
2019-12-10 10:00:00 -3.5 4 Sur 6 Sur 0 907 0.4 99
2019-12-10 09:00:00 -4.8 2 Sur 3 Sur 0 907 0.2 97
2019-12-10 08:00:00 -4.8 0 Calma 4 Sur 0 906.6 -0.4 94
2019-12-10 07:00:00 -4.4 0 Calma 6 Sudeste 0 906.6 -0.7 93
2019-12-10 06:00:00 -4.1 3 Este 4 Este 0 906.8 -0.8 94
2019-12-10 05:00:00 -3.6 2 Este 5 Este 0 907 -0.7 95
2019-12-10 04:00:00 -2.8 0 Calma 5 Este 0 907.3 -0.4 94
2019-12-10 03:00:00 -2.3 3 Nordeste 7 Este 0 907.6 -0.3 95
2019-12-10 02:00:00 -1.4 0 Calma 10 Este 0 907.7 0.1 94
2019-12-10 01:00:00 -0.9 3 Nordeste 9 Este 0 907.7 0.1 94
2019-12-10 00:00:00 0.2 3 Sudeste 8 Este 0 907.9 0.5 92
2019-12-09 23:00:00 0.9 7 Este 12 Sudeste 0 907.6 0.5 91
2019-12-09 22:00:00 1.5 6 Este 15 Este 0 907.6 1.1 88
2019-12-09 21:00:00 3.2 6 Noroeste 14 Noroeste 0 907.4 1.3 84
2019-12-09 20:00:00 3.5 6 Oeste 12 Oeste 0 907.1 1.6 82
2019-12-09 19:00:00 5.1 5 Sudoeste 21 Noroeste 0 906.5 1.5 73
2019-12-09 18:00:00 6.6 0 Calma 16 Noroeste 0 906.1 1 65
2019-12-09 17:00:00 8.6 5 Noroeste 32 Oeste 0 905.5 0.1 51
2019-12-09 16:00:00 9.2 13 Oeste 31 Noroeste 0 905 -0.8 53
2019-12-09 15:00:00 9.2 14 Oeste 32 Noroeste 0 905.1 -0.6 52
2019-12-09 14:00:00 9.7 16 Oeste 33 Oeste 0 905.4 -0.2 54
2019-12-09 13:00:00 9.9 14 Noroeste 35 Noroeste 0 905.8 0.7 55
2019-12-09 12:00:00 8.8 7 Sudoeste 20 Sudoeste 0 905.7 0.7 61
2019-12-09 11:00:00 6.1 5 Sur 14 Sudoeste 0 905.6 0.5 73
2019-12-09 10:00:00 1.5 3 Oeste 9 Oeste 0 905.1 0.4 100
2019-12-09 09:00:00 -0.8 3 Sudeste 6 Sudeste 0 905 0.8 99
2019-12-09 08:00:00 -0.8 3 Este 8 Este 0 905.1 0.9 98
2019-12-09 07:00:00 -0.1 4 Este 8 Sudeste 0 904.7 0.6 97
2019-12-09 06:00:00 0.9 3 Este 5 Sudeste 0 904.2 0.1 96
2019-12-09 05:00:00 3 0 Calma 12 Noroeste 0 904.2 0.3 94
2019-12-09 04:00:00 3.6 5 Oeste 12 Oeste 0 904.1 0.6 97
2019-12-09 03:00:00 5.4 4 Sudoeste 18 Oeste 0 904.1 0.7 91
2019-12-09 02:00:00 6.6 4 Oeste 15 Sudoeste 0 903.9 0.1 95
2019-12-09 01:00:00 6.6 8 Sudoeste 14 Oeste 0 903.5 0 98
2019-12-09 00:00:00 6.6 3 Oeste 10 Oeste 0 903.4 0.3 97
2019-12-08 23:00:00 6.5 6 Noroeste 12 Noroeste 0.2 903.8 0.8 97
2019-12-08 22:00:00 6.3 2 Norte 15 Sudoeste 0 903.5 1 97
2019-12-08 21:00:00 6.2 3 Oeste 12 Sudoeste 1.2 903.1 1.1 96
2019-12-08 20:00:00 6.4 7 Oeste 15 Oeste 0.8 903 1.3 95
2019-12-08 19:00:00 6.6 9 Oeste 18 Oeste 0.6 902.5 0.7 93
2019-12-08 18:00:00 7.4 10 Oeste 20 Oeste 0.4 902 0.7 89
2019-12-08 17:00:00 8.7 10 Oeste 21 Sudoeste 0 901.7 0.2 81
2019-12-08 16:00:00 9.8 10 Oeste 32 Oeste 0 901.8 -0.7 71
2019-12-08 15:00:00 11.1 10 Oeste 20 Noroeste 0 901.3 -2.1 75
2019-12-08 14:00:00 10.6 5 Oeste 13 Sudoeste 0 901.5 -2.2 76
2019-12-08 13:00:00 5.7 3 Sudoeste 13 Noroeste 0 902.5 -0.9 100
2019-12-08 12:00:00 2.9 0 Calma 4 Sur 0 903.4 0 100
2019-12-08 11:00:00 0.2 0 Calma 4 Sudeste 0 903.7 0.7 100
2019-12-08 10:00:00 -1.1 4 Este 6 Sudeste 0 903.4 0.6 100
2019-12-08 09:00:00 -2.1 3 Este 7 Este 0 903.4 0.9 100
2019-12-08 08:00:00 -1.9 3 Este 7 Este 0 903 0.1 100
2019-12-08 07:00:00 -1.3 3 Sur 5 Sur 0 902.8 -0.2 100
2019-12-08 06:00:00 -1.3 3 Sur 5 Sur 0 902.5 -1 100
2019-12-08 05:00:00 -1.4 2 Nordeste 7 Sudeste 0 902.9 -0.6 100
2019-12-08 04:00:00 -1.1 3 Este 5 Este 0 903 -0.5 100
2019-12-08 03:00:00 -1.7 2 Norte 5 Este 0 903.5 -0.4 99
2019-12-08 02:00:00 -1.7 2 Sur 4 Sur 0 903.5 -0.2 97
2019-12-08 01:00:00 -1.3 0 Calma 3 Este 0 903.5 0.1 97
2019-12-08 00:00:00 -0.7 0 Calma 5 Este 0 903.9 0.9 96
2019-12-07 23:00:00 0 2 Este 5 Este 0 903.7 1.2 96
2019-12-07 22:00:00 0.9 2 Nordeste 5 Este 0 903.4 1.3 95
2019-12-07 21:00:00 2.1 2 Este 4 Sudeste 0 903 1.4 93
2019-12-07 20:00:00 3.6 0 Calma 5 Este 0 902.5 1.3 92
2019-12-07 19:00:00 5.5 3 Sudeste 6 Sudeste 0 902.1 1 89
2019-12-07 18:00:00 8 0 Calma 5 Oeste 0 901.6 0.5 78
2019-12-07 17:00:00 11.1 2 Sudoeste 5 Oeste 0 901.2 -0.4 69
2019-12-07 16:00:00 10.2 2 Oeste 6 Noroeste 0 901.1 -1.4 69
2019-12-07 15:00:00 8.6 2 Sudeste 8 Sur 0 901.1 -2.2 79
2019-12-07 14:00:00 5.8 3 Sudoeste 5 Sudoeste 0 901.6 -1.9 95
2019-12-07 13:00:00 4 2 Sudeste 6 Este 0 902.5 -0.4 98
2019-12-07 12:00:00 2.4 3 Sur 6 Este 0 903.3 0.8 100
2019-12-07 11:00:00 1.7 3 Oeste 7 Oeste 0 903.5 1.1 100
2019-12-07 10:00:00 1 3 Sur 6 Sur 0 902.9 0.9 100
2019-12-07 09:00:00 0.6 3 Sur 5 Sur 0 902.5 0.4 100
2019-12-07 08:00:00 0.2 0 Calma 4 Sur 0 902.4 0.2 100
2019-12-07 07:00:00 -0.4 0 Calma 3 Sur 0 902 -0.5 100
2019-12-07 06:00:00 -0.8 2 Sudeste 6 Este 0 902.1 -0.2 100
2019-12-07 05:00:00 -0.6 0 Calma 4 Sur 0 902.2 -0.1 100
2019-12-07 04:00:00 -0.5 2 Nordeste 7 Este 0 902.5 0 99
2019-12-07 03:00:00 -0.1 0 Calma 4 Norte 0 902.3 -0.3 99
2019-12-07 02:00:00 -0.4 0 Calma 5 Sudeste 0 902.3 0.2 98
2019-12-07 01:00:00 0.1 3 Este 6 Nordeste 0 902.5 0.6 99
2019-12-07 00:00:00 -0.3 0 Calma 4 Este 0 902.6 1 96
2019-12-06 23:00:00 0.3 3 Este 4 Sudeste 0 902.1 0.9 95
2019-12-06 22:00:00 1.1 0 Calma 6 Este 0 901.9 1 93
2019-12-06 21:00:00 2.3 0 Calma 5 Este 0 901.6 1.2 92
2019-12-06 20:00:00 3.9 2 Este 8 Este 0 901.2 1 91
2019-12-06 19:00:00 5.6 2 Este 6 Este 0 900.9 0.8 87
2019-12-06 18:00:00 8.3 0 Calma 7 Norte 0 900.4 0.4 76
2019-12-06 17:00:00 10.9 3 Sudoeste 10 Oeste 0 900.2 -0.5 63
2019-12-06 16:00:00 10.3 5 Oeste 12 Oeste 0 900.1 -1.2 65
2019-12-06 15:00:00 10.4 5 Oeste 10 Oeste 0 900 -1.9 63
2019-12-06 14:00:00 11.1 4 Sudoeste 10 Oeste 0 900.7 -1.7 69
2019-12-06 13:00:00 9.7 5 Oeste 11 Oeste 0 901.3 -1.1 75
2019-12-06 12:00:00 8.3 4 Este 16 Sur 0 901.9 0 81
2019-12-06 11:00:00 6.3 5 Sudeste 14 Sudeste 0 902.4 1.1 89
2019-12-06 10:00:00 5.4 4 Sudeste 9 Sudeste 0 902.4 1.6 94
2019-12-06 09:00:00 4.7 3 Nordeste 8 Nordeste 0 901.9 1.3 97
2019-12-06 08:00:00 4.4 0 Calma 8 Este 0 901.3 0.7 96
2019-12-06 07:00:00 5 5 Este 8 Este 0 900.8 0.1 95
2019-12-06 06:00:00 5 0 Calma 5 Nordeste 0 900.6 -0.1 94
2019-12-06 05:00:00 5 2 Oeste 4 Sudoeste 0 900.6 -0.1 94
2019-12-06 04:00:00 5 0 Calma 3 Nordeste 0 900.7 -0.2 93
2019-12-06 03:00:00 5 0 Calma 5 Este 0 900.7 -0.2 93
2019-12-06 02:00:00 5.1 0 Calma 7 Nordeste 0 900.7 -0.1 91
2019-12-06 01:00:00 5.2 4 Este 16 Este 0 900.9 0.4 92
2019-12-06 00:00:00 5.3 4 Este 15 Este 0 900.9 0.7 92
2019-12-05 23:00:00 5.3 7 Nordeste 15 Este 0 900.8 1 93
2019-12-05 22:00:00 5.6 5 Nordeste 15 Este 0 900.5 1.1 95
2019-12-05 21:00:00 5.7 4 Nordeste 10 Este 0 900.2 1.3 96
2019-12-05 20:00:00 5.7 4 Nordeste 14 Este 0 899.8 1.5 95
2019-12-05 19:00:00 5.7 5 Nordeste 13 Este 0 899.4 1.4 95
2019-12-05 18:00:00 5.8 4 Nordeste 15 Nordeste 0 898.9 1.2 94
2019-12-05 17:00:00 5.8 5 Nordeste 15 Norte 0 898.3 0.7 94
2019-12-05 16:00:00 5.8 6 Nordeste 23 Norte 0 898 0 96
2019-12-05 15:00:00 5.6 10 Nordeste 19 Nordeste 0 897.7 -0.4 96
2019-12-05 14:00:00 5.5 7 Este -- -- -- 897.6 -0.1 95
2019-12-05 13:00:00 5.2 5 Nordeste 15 Norte 0 898 1 96
2019-12-05 12:00:00 5.1 6 Nordeste 13 Nordeste 0 898.1 2.1 97
2019-12-05 11:00:00 4.5 6 Nordeste 15 Nordeste 0 897.7 2.4 99
2019-12-05 10:00:00 4.2 8 Nordeste 19 Nordeste 0 897 2.5 98
2019-12-05 09:00:00 4.1 10 Norte 21 Norte 0 896 2.2 96
2019-12-05 08:00:00 4.1 8 Nordeste 20 Este 0 895.3 2 97
2019-12-05 07:00:00 4.1 9 Nordeste 22 Este 0 894.5 1.3 96
2019-12-05 06:00:00 4.5 11 Nordeste 21 Nordeste 0 893.8 1.3 96
2019-12-05 05:00:00 4.5 9 Nordeste 18 Nordeste 0 893.3 0.7 96
2019-12-05 04:00:00 4.3 8 Nordeste 24 Norte 0 893.2 1.1 96
2019-12-05 03:00:00 4.2 16 Nordeste 31 Nordeste 0 892.5 1.1 95
2019-12-05 02:00:00 4.1 8 Nordeste 21 Nordeste 0 892.6 1.6 94
2019-12-05 01:00:00 4.1 5 Nordeste 23 Este 0 892.1 1.6 93
2019-12-05 00:00:00 4.2 7 Nordeste 19 Nordeste 0 891.4 1.2 91
2019-12-04 23:00:00 4.6 9 Nordeste 21 Este 0 891 1.1 90
2019-12-04 22:00:00 4.8 6 Nordeste 30 Norte 0 890.5 1.1 91
2019-12-04 21:00:00 5.1 8 Nordeste 24 Nordeste 0 890.2 0.8 94
2019-12-04 20:00:00 5.1 9 Nordeste 22 Este 0.2 889.9 1.1 96
2019-12-04 19:00:00 5 10 Nordeste 22 Norte 0.2 889.4 0.9 98
2019-12-04 18:00:00 5 13 Norte 30 Norte 0.2 889.4 1.4 96
2019-12-04 17:00:00 5 13 Norte 27 Nordeste 0.2 888.8 0.5 96
2019-12-04 16:00:00 5.2 7 Nordeste 27 Norte 0.2 888.5 0.1 94
2019-12-04 15:00:00 5 7 Nordeste 28 Norte 0 888 -1 96
2019-12-04 14:00:00 4.8 8 Nordeste 23 Norte 0 888.3 -1.1 95
2019-12-04 13:00:00 4.9 8 Nordeste 27 Nordeste 0 888.4 -1 96
2019-12-04 12:00:00 4.7 9 Norte 18 Nordeste 0.2 889 -0.5 98
2019-12-04 11:00:00 4.3 8 Nordeste 21 Nordeste 0 889.4 -0.2 97
2019-12-04 10:00:00 3.7 6 Nordeste 14 Este 0.2 889.4 -0.5 98
2019-12-04 09:00:00 3.1 7 Nordeste 17 Norte 0 889.5 -0.7 98
2019-12-04 08:00:00 2.8 5 Nordeste 18 Nordeste 0 889.6 -1 98
2019-12-04 07:00:00 2.5 6 Norte 17 Nordeste 0 889.9 -1.4 99
2019-12-04 06:00:00 2.1 5 Nordeste 11 Norte 0 890.2 -2 98
2019-12-04 05:00:00 1.7 2 Sur 8 Este 0 890.6 -1.9 98
2019-12-04 04:00:00 1.7 4 Nordeste 10 Norte 0 891.3 -2 97
2019-12-04 03:00:00 1.6 3 Nordeste 13 Norte 0 892.2 -1.7 96
2019-12-04 02:00:00 1.4 4 Nordeste 14 Nordeste 0 892.5 -1.9 96
2019-12-04 01:00:00 1.2 6 Nordeste 16 Norte 0 893.3 -0.9 97
2019-12-04 00:00:00 1.1 6 Norte 14 Norte 1.8 893.9 -0.4 96
2019-12-03 23:00:00 1.4 4 Nordeste 17 Este 0.2 894.4 0.3 94
2019-12-03 22:00:00 1.2 6 Nordeste 16 Nordeste 0.2 894.2 0.3 94
2019-12-03 21:00:00 1.7 5 Nordeste 12 Nordeste 0.4 894.3 0.5 92
2019-12-03 20:00:00 2 7 Este 14 Este 0 894.1 0.3 88
2019-12-03 19:00:00 2 6 Este 13 Este 0 893.9 0.2 87
2019-12-03 18:00:00 2.5 4 Nordeste 15 Este 0 893.8 0.1 85
2019-12-03 17:00:00 3.6 6 Nordeste 15 Nordeste 0 893.8 -0.3 81
2019-12-03 16:00:00 3.8 10 Nordeste 20 Este 0 893.7 -1.1 80
2019-12-03 15:00:00 5 6 Nordeste 19 Este 0 893.7 -1.8 78
2019-12-03 14:00:00 3.8 9 Este 18 Este 0 894.1 -1.9 79
2019-12-03 13:00:00 2.6 9 Este 17 Este 0 894.8 -1.2 84
2019-12-03 12:00:00 1.8 9 Este 23 Nordeste 0 895.5 -0.2 86
2019-12-03 11:00:00 1.2 11 Este 21 Este 0 896 0.3 88
2019-12-03 10:00:00 0.5 10 Este 21 Este 0 896 0.4 91
2019-12-03 09:00:00 0.5 7 Nordeste 15 Nordeste 0 895.7 0.1 90
2019-12-03 08:00:00 0.4 7 Este 16 Este 0 895.7 -0.2 90
2019-12-03 07:00:00 0.7 5 Nordeste 12 Este 0 895.6 -0.8 90
2019-12-03 06:00:00 0.8 5 Nordeste 14 Este 0 895.6 -0.7 90
2019-12-03 05:00:00 0.7 8 Este 16 Sudeste 0 895.9 -0.6 91
2019-12-03 04:00:00 1.2 5 Nordeste 11 Este 0 896.4 -0.7 92
2019-12-03 03:00:00 1.4 5 Este 10 Este 0 896.3 -1.1 91
2019-12-03 02:00:00 2 4 Nordeste 12 Sudeste 0 896.5 -0.8 90
2019-12-03 01:00:00 2.4 8 Este 14 Este 0 897.1 0.2 88
2019-12-03 00:00:00 2.3 5 Este 12 Este 0 897.4 0.5 90
2019-12-02 23:00:00 2.6 3 Sudeste 10 Sudeste 0 897.3 0.6 89
2019-12-02 22:00:00 3.2 5 Sudeste 19 Nordeste 0 896.9 0.4 88
2019-12-02 21:00:00 3.9 9 Nordeste 22 Nordeste 0 896.9 0.9 86
2019-12-02 20:00:00 4.4 6 Nordeste 17 Este 0 896.7 0.9 86
2019-12-02 19:00:00 4.7 6 Nordeste 16 Nordeste 0 896.5 1.1 86
2019-12-02 18:00:00 5.3 5 Nordeste 18 Este 0 896 0.7 83
2019-12-02 17:00:00 5.7 9 Nordeste 24 Este 0 895.8 0.4 78
2019-12-02 16:00:00 5.8 10 Nordeste 25 Nordeste 0 895.4 -0.2 79
2019-12-02 15:00:00 6.4 7 Nordeste 22 Este 0 895.3 -0.6 77
2019-12-02 14:00:00 6.4 7 Nordeste 22 Norte 0 895.4 -0.5 78
2019-12-02 13:00:00 5.5 7 Nordeste 23 Este 0 895.6 0.1 84
2019-12-02 12:00:00 4.7 8 Nordeste 22 Este 0 895.9 1.1 87
2019-12-02 11:00:00 4.3 6 Nordeste 21 Este 0 895.9 1.9 91
2019-12-02 10:00:00 3.8 8 Nordeste 22 Nordeste 0 895.5 1.7 92
2019-12-02 09:00:00 3.8 9 Nordeste 24 Este 0 894.8 1.8 90
2019-12-02 08:00:00 3.9 5 Nordeste 18 Este 0 894 1 88
2019-12-02 07:00:00 3.9 8 Nordeste 21 Este 0 893.8 0.8 87
2019-12-02 06:00:00 4 5 Nordeste 19 Nordeste 0 893 0.2 88
2019-12-02 05:00:00 4.1 5 Nordeste 22 Este 0 893 0.2 91
2019-12-02 04:00:00 4.1 8 Este 15 Este 0 893 0.3 90
2019-12-02 03:00:00 3.5 4 Nordeste 13 Este 0 892.8 0.2 93
2019-12-02 02:00:00 3.6 2 Nordeste 8 Nordeste 0 892.8 0.4 92
2019-12-02 01:00:00 3.6 3 Nordeste 6 Este 0 892.7 0.6 90
2019-12-02 00:00:00 3.7 3 Este 6 Este 0 892.6 0.5 92
2019-12-01 23:00:00 3.7 3 Nordeste 7 Nordeste 0 892.4 0.7 93
2019-12-01 22:00:00 3.8 4 Este 7 Nordeste 0 892.1 1.2 94
2019-12-01 21:00:00 3.3 3 Este 6 Este 0 892.1 1.4 94
2019-12-01 20:00:00 3.3 2 Norte 5 Este 0 891.7 1.2 93
2019-12-01 19:00:00 4.4 2 Nordeste 12 Norte 0 890.9 0.4 87
2019-12-01 18:00:00 6.6 3 Norte 7 Nordeste 0 890.7 0.1 79
2019-12-01 17:00:00 7.8 3 Noroeste 8 Noroeste 0 890.5 -0.3 70
2019-12-01 16:00:00 8.4 4 Noroeste 9 Oeste 0 890.5 -0.6 67
2019-12-01 15:00:00 8.4 5 Noroeste 18 Sudoeste 0 890.6 -1 65
2019-12-01 14:00:00 8.4 9 Sudoeste 21 Oeste 0 890.8 -1.2 67
2019-12-01 13:00:00 8.7 10 Sudoeste 23 Sudoeste 0 891.1 -0.8 69
2019-12-01 12:00:00 6.1 5 Sudoeste 13 Sudoeste 0 891.6 0 85
2019-12-01 11:00:00 4 2 Sudeste 6 Sudeste 0 892 0.4 96
2019-12-01 10:00:00 2 3 Este 9 Sudeste 0 891.9 0.5 99
2019-12-01 09:00:00 1.6 4 Sudeste 10 Sudeste 0 891.6 -0.1 99
2019-12-01 08:00:00 1.9 4 Sur 6 Sur 0 891.6 -0.3 99
2019-12-01 07:00:00 2.1 0 Calma 7 Sur 0 891.4 -1 99
2019-12-01 06:00:00 2.2 0 Calma 7 Sudoeste 0 891.7 -1 99
2019-12-01 05:00:00 2.5 3 Noroeste 6 Norte 0 891.9 -1.2 98
2019-12-01 04:00:00 2.5 3 Norte 7 Norte 0 892.4 -1.7 95
2019-12-01 03:00:00 3.5 2 Oeste 7 Este 0 892.7 -2.1 95
2019-12-01 02:00:00 3.3 5 Este 12 Este 0.6 893.1 -1.8 96
2019-12-01 01:00:00 3.1 5 Sudeste 12 Sudeste 1 894.1 -0.6 94
2019-12-01 00:00:00 3.9 6 Sur 19 Oeste 1.2 894.8 0.9 93
2019-11-30 23:00:00 4.4 5 Oeste 36 Oeste 2 894.9 0.6 90
2019-11-30 22:00:00 7.4 11 Noroeste 30 Noroeste 3 894.7 0.7 89
2019-11-30 21:00:00 9.6 5 Sudoeste 26 Sudoeste 0 893.9 -0.3 90
2019-11-30 20:00:00 10.3 11 Sudoeste 28 Sudoeste 0 894.3 -0.4 86
2019-11-30 19:00:00 10.8 14 Sudoeste 33 Sur 0 894 -1.5 81
2019-11-30 18:00:00 11 13 Sudoeste 26 Sudoeste 0 894.2 -2 80
2019-11-30 17:00:00 11.1 10 Sudoeste 27 Sur 0 894.7 -2.3 80
2019-11-30 16:00:00 11 11 Sudoeste 33 Sur 0 895.5 -2.2 79
2019-11-30 15:00:00 10.8 11 Sudoeste 24 Oeste 0 896.2 -2.4 80
2019-11-30 14:00:00 11.4 12 Sudoeste 33 Sudoeste 0 897 -2 79
2019-11-30 13:00:00 11.9 13 Sudoeste 29 Sudoeste 0 897.7 -1 79
2019-11-30 12:00:00 11.5 8 Sudoeste 23 Sudoeste 0 898.6 -0.2 80
2019-11-30 11:00:00 11.5 9 Sudoeste 29 Sudoeste 0 899 0.7 81
2019-11-30 10:00:00 10.2 11 Sudoeste 26 Oeste 0 898.7 0 85
2019-11-30 09:00:00 9.2 8 Oeste 15 Oeste 0 898.8 -0.1 95
2019-11-30 08:00:00 8.1 2 Sudoeste 10 Oeste 0 898.3 -1.1 96
2019-11-30 07:00:00 8.4 6 Oeste 11 Oeste 0 898.7 -0.5 96
2019-11-30 06:00:00 9.1 3 Oeste 13 Oeste 0 898.9 -0.8 93
2019-11-30 05:00:00 9.8 6 Oeste 14 Oeste 0 899.4 -0.7 92
2019-11-30 04:00:00 9.8 6 Sudoeste 15 Oeste 0 899.2 -1.3 92
2019-11-30 03:00:00 9.7 2 Sudeste 14 Oeste 0 899.7 -0.7 92
2019-11-30 02:00:00 9.6 7 Oeste 14 Oeste 0 900.1 -0.2 92
2019-11-30 01:00:00 9.9 8 Oeste 14 Oeste 0 900.5 0.2 92
2019-11-30 00:00:00 10.2 5 Oeste 11 Sudoeste 0 900.4 0.1 93
2019-11-29 23:00:00 9.9 3 Sur 4 Sur 0 900.3 0.2 95
2019-11-29 22:00:00 9.9 2 Sudoeste 4 Sudoeste 0 900.3 0.3 94
2019-11-29 21:00:00 9.9 2 Sudoeste 6 Oeste 0 900.3 0.6 93
2019-11-29 20:00:00 10.1 0 Calma 7 Sudoeste 0 900.1 0.6 89
2019-11-29 19:00:00 10.8 4 Oeste 12 Oeste 0 900 0.8 88
2019-11-29 18:00:00 11.2 5 Oeste 15 Sudoeste 0 899.7 0.7 86
2019-11-29 17:00:00 11.8 8 Sudoeste 18 Oeste 0 899.5 0.2 83
2019-11-29 16:00:00 12.3 8 Oeste 22 Sudoeste 0 899.2 -0.4 81
2019-11-29 15:00:00 13 11 Sudoeste 23 Oeste 0 899 -1 76
2019-11-29 14:00:00 12.5 9 Oeste 21 Sudoeste 0 899.3 -0.8 80
2019-11-29 13:00:00 12.7 11 Oeste 24 Oeste 0 899.6 0.5 81
2019-11-29 12:00:00 11 10 Sudoeste 17 Oeste 0 900 1.6 91
2019-11-29 11:00:00 10.2 9 Oeste 17 Oeste 0 900.1 2.2 94
2019-11-29 10:00:00 9.6 4 Oeste 10 Oeste 0 899.1 1.5 96
2019-11-29 09:00:00 8.9 5 Oeste 9 Oeste 0 898.4 1.2 97
2019-11-29 08:00:00 8.6 0 Calma 5 Noroeste 0.2 897.9 1.2 97
2019-11-29 07:00:00 8.7 2 Este 5 Sudoeste 0 897.6 1.2 97
2019-11-29 06:00:00 8.6 3 Sudoeste 14 Oeste 0 897.2 0.9 96
2019-11-29 05:00:00 8.6 9 Oeste 28 Oeste 0.2 896.7 0.6 96
2019-11-29 04:00:00 8.6 13 Oeste 26 Oeste 0.2 896.4 0.3 96
2019-11-29 03:00:00 8.5 13 Oeste 25 Oeste 0 896.3 0.6 96
2019-11-29 02:00:00 8.6 13 Oeste 31 Sudoeste 0 896.1 0.4 94
2019-11-29 01:00:00 8.9 14 Oeste 37 Sudoeste 0 896.1 0.5 90
2019-11-29 00:00:00 8.9 17 Oeste 35 Oeste 0 895.7 0.3 88
2019-11-28 23:00:00 8.8 16 Sudoeste 35 Oeste 0 895.7 0.5 87
2019-11-28 22:00:00 8.8 15 Sudoeste 27 Sudoeste 0 895.6 0.6 87
2019-11-28 21:00:00 8.9 9 Sudoeste 30 Oeste 0 895.4 0.3 87
2019-11-28 20:00:00 8.6 15 Sudoeste 28 Sur 0 895.2 0.1 84
2019-11-28 19:00:00 8.3 12 Oeste 30 Oeste 0 895 -0.1 84
2019-11-28 18:00:00 8.3 12 Oeste 26 Oeste 0 895.1 -0.2 85
2019-11-28 17:00:00 8.5 12 Oeste 23 Sudoeste 0 895.1 -0.2 86
2019-11-28 16:00:00 8.6 8 Sudoeste 21 Oeste 0 895.1 -0.7 88
2019-11-28 15:00:00 9 9 Sudoeste 30 Sudoeste 0 895.3 -1.2 82
2019-11-28 14:00:00 9.8 13 Sudoeste 25 Sudoeste 0 895.3 -0.7 78
2019-11-28 13:00:00 10.2 14 Sudoeste 36 Oeste 0 895.8 0.1 76
2019-11-28 12:00:00 9.4 13 Sudoeste 31 Oeste 0 896.5 1.3 80
2019-11-28 11:00:00 9.8 16 Oeste 28 Sudoeste 0 896 1.5 77
2019-11-28 10:00:00 7.6 13 Oeste 28 Oeste 0 895.7 1.5 86
2019-11-28 09:00:00 6.7 12 Oeste 22 Sudoeste 0 895.2 1.7 88
2019-11-28 08:00:00 6.3 7 Oeste 26 Sudoeste 0 894.5 1.2 87
2019-11-28 07:00:00 6.6 9 Oeste 18 Oeste 0 894.2 1 88
2019-11-28 06:00:00 6.7 13 Oeste 28 Oeste 0 893.5 0.5 85
2019-11-28 05:00:00 6.7 14 Oeste 27 Oeste 0 893.3 0.6 85
2019-11-28 04:00:00 7 15 Sudoeste 32 Sudoeste 0 893.2 0.3 84
2019-11-28 03:00:00 7.4 10 Sudoeste 27 Oeste 0 893 0 83
2019-11-28 02:00:00 7.5 13 Sudoeste 29 Oeste 0 892.7 0.2 83
2019-11-28 01:00:00 7.9 13 Sudoeste 32 Oeste 0 892.9 0.3 83
2019-11-28 00:00:00 7.5 11 Sudoeste 24 Oeste 0 893 0.5 83
2019-11-27 23:00:00 7.3 10 Sudoeste 25 Sudoeste 0 892.5 0.1 83
2019-11-27 22:00:00 7.9 8 Sudoeste 22 Sudoeste 0 892.6 0.5 83
2019-11-27 21:00:00 7.9 12 Oeste 25 Oeste 0 892.5 0.7 81
2019-11-27 20:00:00 7.9 11 Sudoeste 25 Oeste 0 892.4 1.4 79
2019-11-27 19:00:00 8.2 9 Sudoeste 27 Oeste 0 892.1 1.3 77
2019-11-27 18:00:00 8.7 13 Sudoeste 31 Oeste 0 891.8 0.7 74
2019-11-27 17:00:00 9.4 13 Sudoeste 30 Oeste 0 891 -0.1 70
2019-11-27 16:00:00 9.9 13 Sudoeste 26 Oeste 0 890.8 -0.3 67
2019-11-27 15:00:00 10.2 15 Sudoeste 37 Sudoeste 0 891.1 -0.6 61
2019-11-27 14:00:00 11.1 19 Oeste 39 Sudoeste 0 891.1 -0.4 61
2019-11-27 06:00:00 9 15 Oeste 45 Oeste 0 888.7 0.7 82
2019-11-27 05:00:00 9.3 25 Oeste 45 Oeste 0 888.2 -0.2 83
2019-11-27 04:00:00 9.4 20 Sudoeste 46 Sudoeste 0 887.9 -0.3 87
2019-11-27 03:00:00 9.5 21 Sudoeste 42 Sudoeste 0.2 888 -0.1 89
2019-11-27 02:00:00 9.7 26 Oeste 60 Oeste 0 888.4 0.5 84
2019-11-27 01:00:00 10.5 18 Sudoeste 55 Sudoeste 0 888.2 -0.4 76
2019-11-27 00:00:00 11 28 Sudoeste 49 Oeste 0 888.1 -0.7 79
2019-11-26 23:00:00 11.2 21 Sudoeste 43 Sudoeste 0 887.9 -1 86
2019-11-26 22:00:00 11 15 Sudoeste 39 Sudoeste 0 888.6 -0.8 88
2019-11-26 21:00:00 11.1 16 Sudoeste 37 Sudoeste 0 888.8 -1.3 88
2019-11-26 20:00:00 11.2 15 Sudoeste 31 Sudoeste 0 888.9 -2 87
2019-11-26 19:00:00 10.7 12 Sudoeste 26 Sudoeste 0 889.4 -1.9 88
2019-11-26 18:00:00 11.4 9 Sudoeste 28 Sur 0 890.1 -1.7 82
2019-11-26 17:00:00 11.6 11 Sudoeste 28 Sudoeste 0 890.9 -1.1 80
2019-11-26 16:00:00 12.4 14 Sudoeste 30 Sudoeste 0 891.3 -1.1 76
2019-11-26 15:00:00 12.6 17 Sudoeste 48 Oeste 0 891.8 -1.5 76
2019-11-26 14:00:00 13.1 22 Sudoeste 45 Sudoeste 0 892 -1.9 72
2019-11-26 13:00:00 13.3 20 Sudoeste 45 Sudoeste 0 892.4 -1.5 73
2019-11-26 12:00:00 12.4 22 Oeste 39 Oeste 0 893.3 -0.5 74
2019-11-26 11:00:00 10.3 11 Sudoeste 32 Sudoeste 0 893.9 0 82
2019-11-26 10:00:00 9.2 8 Sudoeste 27 Sudoeste 0 893.9 0.4 85
2019-11-26 09:00:00 8.2 8 Sudoeste 21 Oeste 0 893.8 -0.5 88
2019-11-26 08:00:00 8 5 Oeste 13 Oeste 0 893.9 -0.2 90
2019-11-26 07:00:00 8.1 6 Oeste 24 Sudoeste 0 893.5 -0.7 88
2019-11-26 06:00:00 8.3 10 Oeste 20 Oeste 0 894.3 -0.1 90
2019-11-26 05:00:00 7 6 Sudoeste 13 Sudoeste 0 894.1 -0.7 95
2019-11-26 04:00:00 7.2 3 Noroeste 15 Sudoeste 0 894.2 -0.7 91
2019-11-26 03:00:00 8.1 5 Oeste 20 Oeste 0 894.4 -0.7 90
2019-11-26 02:00:00 7.7 10 Oeste 18 Oeste 0 894.8 -0.4 94
2019-11-26 01:00:00 6.6 6 Oeste 10 Oeste 0 894.9 -0.5 94
2019-11-26 00:00:00 6.3 5 Oeste 10 Oeste 0 895.1 0.2 95
2019-11-25 23:00:00 7.3 4 Sur 7 Sudoeste 0 895.2 0.4 93
2019-11-25 22:00:00 8.1 0 Calma 10 Oeste 0 895.4 1.1 91
2019-11-25 21:00:00 8.6 5 Oeste 9 Sudoeste 0 894.9 0.8 91
2019-11-25 20:00:00 8.7 5 Sudoeste 9 Oeste 0 894.8 0.9 89
2019-11-25 19:00:00 8.9 0 Calma 5 Sudoeste 0 894.3 0.6 86
2019-11-25 18:00:00 10 2 Sudoeste 10 Oeste 0 894.1 0.4 79
2019-11-25 17:00:00 11.2 8 Oeste 19 Oeste 0 893.9 0.2 75
2019-11-25 16:00:00 11.4 11 Oeste 27 Sudoeste 0 893.7 0.3 74
2019-11-25 15:00:00 11.2 14 Oeste 29 Oeste 0 893.7 -0.3 74
2019-11-25 14:00:00 11.1 11 Oeste 23 Oeste 0 893.7 -0.4 77
2019-11-25 13:00:00 11 12 Oeste 23 Sudoeste 0 893.4 -0.6 79
2019-11-25 12:00:00 10 10 Oeste 21 Oeste 0 894 0.5 86
2019-11-25 11:00:00 8.4 8 Oeste 17 Oeste 0 894.1 1.3 94
2019-11-25 10:00:00 7.5 9 Oeste 23 Sudoeste 0 894 1.4 97
2019-11-25 09:00:00 7.2 10 Oeste 24 Oeste 0 893.5 1.2 96
2019-11-25 08:00:00 7 13 Oeste 28 Oeste 0 892.8 0.4 96
2019-11-25 07:00:00 6.9 16 Oeste 31 Oeste 0 892.6 0.3 95
2019-11-25 06:00:00 7 12 Oeste 33 Oeste 0 892.3 -0.2 93
2019-11-25 05:00:00 6.7 15 Oeste 33 Sudoeste 0.2 892.4 -0.3 94
2019-11-25 04:00:00 6.1 7 Oeste 21 Oeste 0.6 892.3 -0.4 96
2019-11-25 03:00:00 5.7 11 Oeste 25 Oeste 0 892.5 -1 94
2019-11-25 02:00:00 5.3 11 Oeste 27 Oeste 0 892.7 -0.7 92
2019-11-25 01:00:00 4.5 8 Oeste 28 Sudoeste 0 892.7 -0.4 88
2019-11-25 00:00:00 4.7 9 Oeste 21 Oeste 0 893.5 0.4 81
2019-11-24 23:00:00 5 6 Oeste 14 Oeste 0 893.4 0.8 78
2019-11-24 22:00:00 4.5 8 Oeste 26 Sudoeste 0 893.1 0.5 81
2019-11-24 21:00:00 4.4 13 Oeste 26 Oeste 0 893.1 0.8 82
2019-11-24 20:00:00 4.5 10 Oeste 19 Oeste 0 892.6 0.5 76
2019-11-24 19:00:00 5.3 12 Oeste 25 Sudoeste 0 892.6 0.3 72
2019-11-24 18:00:00 6 9 Oeste 24 Sudoeste 0 892.3 0.2 69
2019-11-24 17:00:00 7.7 12 Oeste 27 Sudoeste 0 892.1 -0.1 64
2019-11-24 16:00:00 7.8 14 Oeste 28 Oeste 0 892.3 -0.7 62
2019-11-24 15:00:00 8.4 13 Oeste 27 Oeste 0 892.1 -1.5 62
2019-11-24 14:00:00 8.4 15 Oeste 28 Oeste 0 892.2 -1.1 59
2019-11-24 13:00:00 7.7 8 Oeste 22 Oeste 0 893 0 64
2019-11-24 12:00:00 6.6 12 Oeste 26 Noroeste 0 893.6 1.1 69
2019-11-24 11:00:00 5.4 12 Oeste 33 Oeste 0 893.3 1.5 73
2019-11-24 10:00:00 4.8 14 Oeste 33 Oeste 0 893 1.7 75
2019-11-24 09:00:00 3.5 10 Oeste 23 Oeste 0 892.5 1.7 81
2019-11-24 08:00:00 3.7 14 Oeste 27 Oeste 0 891.8 1.7 78
2019-11-24 07:00:00 3.7 10 Oeste 27 Oeste 0 891.3 1.2 79
2019-11-24 06:00:00 3.6 15 Oeste 31 Oeste 0 890.8 0.9 80
2019-11-24 05:00:00 3.9 12 Oeste 35 Oeste 0 890.1 0.4 78
2019-11-24 04:00:00 4.2 7 Oeste 30 Oeste 0 890.1 0.6 78
2019-11-24 03:00:00 4.6 11 Oeste 20 Noroeste 0 889.9 0.6 76
2019-11-24 02:00:00 4.3 4 Noroeste 13 Oeste 0 889.7 0.9 80
2019-11-24 01:00:00 4.4 9 Oeste 18 Sudoeste 0 889.5 1.5 78
2019-11-24 00:00:00 4.3 7 Oeste 15 Oeste 0 889.3 1.9 76
2019-11-23 23:00:00 4.4 9 Oeste 23 Oeste 0 888.8 2.2 73
2019-11-23 22:00:00 3.6 13 Oeste 22 Sudoeste 0 888 2.2 76
2019-11-23 21:00:00 4.1 10 Oeste 24 Oeste 0 887.4 2.7 75
2019-11-23 20:00:00 4.6 13 Oeste 27 Oeste 0 886.6 2.8 73
2019-11-23 19:00:00 5.2 14 Oeste 28 Sudoeste 0 885.8 3 70
2019-11-23 18:00:00 5.8 14 Oeste 37 Oeste 0 884.7 2.3 66
2019-11-23 17:00:00 6.8 21 Oeste 42 Oeste 0 883.8 1.9 60
2019-11-23 16:00:00 7.7 20 Noroeste 44 Noroeste 0 882.8 1.7 57
2019-11-23 15:00:00 7.4 19 Oeste 45 Oeste 0 882.4 1.6 59
2019-11-23 14:00:00 6.9 18 Oeste 43 Oeste 0 881.9 2.1 61
2019-11-23 13:00:00 6.1 21 Oeste 39 Oeste 0 881.1 2.5 70
2019-11-23 12:00:00 5.7 17 Oeste 36 Sudoeste 0 880.8 3.6 74
2019-11-23 11:00:00 5 17 Oeste 34 Oeste 0 879.8 4.1 83
2019-11-23 10:00:00 4.4 16 Oeste 33 Oeste 0 878.6 3.9 88
2019-11-23 09:00:00 3.8 13 Oeste 27 Oeste 0.2 877.2 3.3 92
2019-11-23 08:00:00 2.9 10 Oeste 26 Sudoeste 0.6 875.7 2.1 95
2019-11-23 07:00:00 3.5 14 Oeste 33 Sudoeste 1.6 874.7 1.4 92
2019-11-23 06:00:00 4.2 18 Oeste 37 Oeste 0.8 873.9 0.9 91
2019-11-23 05:00:00 4.9 12 Oeste 32 Oeste 0 873.6 0.7 86
2019-11-23 04:00:00 4.9 9 Oeste 30 Oeste 1.4 873.3 0.1 90
2019-11-23 03:00:00 5.5 12 Sudoeste 37 Sudoeste 0.2 873 -0.6 86
2019-11-23 02:00:00 6.3 12 Sudoeste 27 Oeste 0.4 872.9 -0.9 90
2019-11-23 01:00:00 6.6 15 Sudoeste 42 Oeste 0 873.2 -0.6 85
2019-11-23 00:00:00 7.6 13 Sudoeste 31 Oeste 0 873.6 0.2 84
2019-11-22 23:00:00 8 14 Sudoeste 32 Oeste 0 873.8 0.9 86
2019-11-22 22:00:00 8.1 14 Sudoeste 40 Oeste 0 873.8 1 87
2019-11-22 21:00:00 8.2 15 Sudoeste 36 Sudoeste 0 873.4 -0.2 79
2019-11-22 20:00:00 9.5 13 Sudoeste 42 Sudoeste 0.2 872.9 -0.6 86
2019-11-22 19:00:00 9.7 10 Sudoeste 34 Sudoeste 0 872.8 -1.6 90
2019-11-22 18:00:00 9.8 10 Sudoeste 32 Sudoeste 0.2 873.6 -1.8 90
2019-11-22 17:00:00 10 12 Sudoeste 35 Sudoeste 0 873.5 -2.8 87
2019-11-22 16:00:00 9.2 12 Sudoeste 42 Sudoeste 0.8 874.4 -3.7 87
2019-11-22 15:00:00 9.9 13 Sudoeste 43 Sur 0 875.4 -4.4 81
2019-11-22 14:00:00 10.3 20 Sur 42 Sur 0 876.3 -4.6 78
2019-11-22 13:00:00 9.9 16 Sur 29 Sur 0 878.1 -3.5 79
2019-11-22 12:00:00 9 13 Sudoeste 32 Sudoeste 0 879.8 -2.6 78
2019-11-22 11:00:00 8.8 13 Sudoeste 27 Sur 0 880.9 -1.8 79
2019-11-22 10:00:00 7.3 8 Sudoeste 24 Sudoeste 0 881.6 -1.8 87
2019-11-22 09:00:00 6.3 9 Sur 18 Sur 0 882.4 -1.8 92
2019-11-22 08:00:00 5.8 8 Sudoeste 16 Sur 0 882.7 -2.1 90
2019-11-22 07:00:00 5.4 6 Sudeste 18 Sudeste 0 883.4 -1.9 90
2019-11-22 06:00:00 5 9 Sur 19 Sur 0 884.2 -1.4 92
2019-11-22 05:00:00 2.9 2 Sudoeste 6 Este 0 884.8 -1.4 97
2019-11-22 04:00:00 2.6 2 Sudeste 5 Este 0 885.3 -1.4 95
2019-11-22 03:00:00 3.3 3 Sudoeste 5 Sur 0 885.6 -1.6 93
2019-11-22 02:00:00 3.5 2 Este 5 Sudeste 0 886.2 -1.6 94
2019-11-22 01:00:00 3.9 0 Calma 9 Sudeste 0 886.7 -0.9 93
2019-11-22 00:00:00 4.8 2 Sur 6 Sudeste 0.2 887.2 0.1 91
2019-11-21 23:00:00 5.3 2 Sur 6 Sur 0 887.8 0.7 88
2019-11-21 22:00:00 5.5 3 Oeste 7 Sur 0 887.6 0.5 87
2019-11-21 21:00:00 5.8 2 Sur 15 Sur 0 887.1 0.2 85
2019-11-21 20:00:00 5.7 4 Sur 12 Sudoeste 0 887.1 0.3 85
2019-11-21 19:00:00 5.4 3 Oeste 14 Sudoeste 0 887.1 0.5 85
2019-11-21 18:00:00 6.1 7 Sudoeste 19 Oeste 0 886.9 0.5 81
2019-11-21 17:00:00 7.1 10 Sudoeste 26 Oeste 0 886.8 0 77
2019-11-21 16:00:00 7.7 11 Sudoeste 28 Oeste 0 886.6 -0.5 74
2019-11-21 15:00:00 8.1 12 Sudoeste 26 Sudoeste 0 886.4 -1.1 72
2019-11-21 14:00:00 7.5 14 Oeste 33 Sudoeste 0 886.8 -0.7 72
2019-11-21 13:00:00 8.3 13 Sudoeste 31 Sudoeste 0 887.1 -0.2 71
2019-11-21 12:00:00 8.4 13 Sudoeste 33 Sudoeste 0 887.5 0 71
2019-11-21 11:00:00 7 -- -- -- -- -- 887.5 0.5 79
2019-11-21 10:00:00 5.3 8 Sudoeste 15 Oeste 0 887.3 0.4 85
2019-11-21 09:00:00 4.2 8 Sudoeste 17 Sudoeste 0 887.5 0.7 89
2019-11-21 08:00:00 -- -- -- -- -- -- -- -- --
2019-11-21 07:00:00 -- -- -- -- -- -- -- -- --
2019-11-21 06:00:00 -- -- -- -- -- -- -- -- --
2019-11-21 05:00:00 -- -- -- -- -- -- -- -- --
2019-11-21 04:00:00 -- -- -- -- -- -- -- -- --
2019-11-21 03:00:00 -- -- -- -- -- -- -- -- --
2019-11-21 02:00:00 -- -- -- -- -- -- -- -- --
2019-11-21 01:00:00 -- -- -- -- -- -- -- -- --
2019-11-21 00:00:00 -- -- -- -- -- -- -- -- --
2019-11-20 23:00:00 -- -- -- -- -- -- -- -- --
2019-11-20 22:00:00 3.8 5 Sudoeste 16 Sudoeste 0 887.7 0.3 86
2019-11-20 21:00:00 4 7 Sudoeste 20 Sudoeste 0 887.8 0.4 85
2019-11-20 20:00:00 4.4 5 Sudoeste 17 Oeste 0 887.7 0.3 82
2019-11-20 19:00:00 5.1 5 Sudoeste 17 Sudoeste 0 887.4 0 82
2019-11-20 18:00:00 5.8 9 Sudoeste 19 Sudoeste 0 887.4 0 74
2019-11-20 17:00:00 6.8 7 Sudoeste 27 Sur 0 887.4 -0.8 64
2019-11-20 16:00:00 8.1 12 Sudoeste 26 Oeste 0 887.4 -1.5 56
2019-11-20 15:00:00 8 9 Sudoeste 23 Oeste 0 887.4 -2.3 56
2019-11-20 14:00:00 8.2 9 Sudoeste 24 Sudoeste 0 888.2 -2.1 50
2019-11-20 13:00:00 7.8 9 Sudoeste 24 Sur 0 888.9 -1.7 51
2019-11-20 12:00:00 6.5 11 Sudoeste 21 Sur 0 889.7 -0.9 66
2019-11-20 11:00:00 3.1 3 Sudeste 5 Este 0 890.3 -0.2 83
2019-11-20 10:00:00 -1.1 0 Calma 3 Sur 0 890.6 -0.1 98
2019-11-20 09:00:00 -3 0 Calma 3 Este 0 890.6 -0.4 97
2019-11-20 08:00:00 -3.4 0 Calma 3 Sudoeste 0 890.5 -0.6 95
2019-11-20 07:00:00 -2.9 0 Calma 4 Este 0 890.7 -1 94
2019-11-20 06:00:00 -2.8 2 Este 4 Este 0 891 -1.1 97
2019-11-20 05:00:00 -3 0 Calma 3 Este 0 891.1 -1.2 95
2019-11-20 04:00:00 -2.7 2 Este 3 Sudeste 0 891.7 -1.2 93
2019-11-20 03:00:00 -2.3 0 Calma 3 Sudeste 0 892.1 -1.1 94
2019-11-20 02:00:00 -1.9 0 Calma 3 Sudeste 0 892.3 -1.4 94
2019-11-20 01:00:00 -1.6 2 Este 6 Este 0 892.9 -0.9 93
2019-11-20 00:00:00 -1.2 0 Calma 6 Este 0 893.2 -0.5 92
2019-11-19 23:00:00 -0.8 0 Calma 6 Este 0 893.7 0.1 92
2019-11-19 22:00:00 -0.3 2 Este 7 Este 0 893.8 0.4 90
2019-11-19 21:00:00 0.3 0 Calma 5 Sur 0 893.7 0.5 88
2019-11-19 20:00:00 0.8 2 Este 5 Sudeste 0 893.6 0.7 83
2019-11-19 19:00:00 2.5 2 Sur 6 Oeste 0 893.4 0.3 75
2019-11-19 18:00:00 4.9 3 Oeste 12 Noroeste 0 893.2 -0.2 65
2019-11-19 17:00:00 6.9 6 Oeste 12 Oeste 0 892.9 -1 55
2019-11-19 16:00:00 7.5 7 Oeste 19 Sudoeste 0 893.1 -1.3 55
2019-11-19 15:00:00 7 11 Oeste 21 Sudoeste 0 893.4 -2.1 57
2019-11-19 14:00:00 7 11 Oeste 27 Sudoeste 0 893.9 -2 58
2019-11-19 13:00:00 6.5 10 Noroeste 20 Oeste 0 894.4 -1.6 59
2019-11-19 12:00:00 4.2 9 Oeste 20 Oeste 0 895.5 -0.3 73
2019-11-19 11:00:00 1.7 4 Oeste 14 Oeste 0 895.9 0.7 84
2019-11-19 10:00:00 -2.1 2 Sudeste 5 Este 0 896 0.9 96
2019-11-19 09:00:00 -5.2 0 Calma 6 Sudeste 0 895.8 0.8 94
2019-11-19 08:00:00 -5.6 0 Calma 6 Este 0 895.2 0.5 93
2019-11-19 07:00:00 -5 3 Este 6 Sudeste 0 895.1 0.1 93
2019-11-19 06:00:00 -4.9 0 Calma 5 Noroeste 0 895 -0.6 94
2019-11-19 05:00:00 -4.5 0 Calma 5 Nordeste 0 894.7 -1 93
2019-11-19 04:00:00 -3.8 6 Sudeste 10 Sudeste 0 895 -0.7 95
2019-11-19 03:00:00 -3.7 0 Calma 6 Sudeste 0 895.6 0 91
2019-11-19 02:00:00 -3.1 0 Calma 6 Sudeste 0 895.7 0.1 90
2019-11-19 01:00:00 -2.2 0 Calma 6 Este 0 895.7 0.4 91
2019-11-19 00:00:00 -1.4 3 Este 8 Oeste 0 895.6 1.1 87
2019-11-18 23:00:00 -0.2 5 Noroeste 13 Noroeste 0 895.6 1.1 85
2019-11-18 22:00:00 -0.5 0 Calma 13 Noroeste 0 895.3 1.4 86
2019-11-18 21:00:00 0 4 Noroeste 9 Noroeste 0 894.5 0.9 88
2019-11-18 20:00:00 0.7 4 Sur 8 Oeste 0 894.5 1.3 84
2019-11-18 19:00:00 2.2 5 Norte 11 Norte 0 893.9 1.2 76
2019-11-18 18:00:00 3.8 6 Noroeste 23 Noroeste 0 893.6 1.1 66
2019-11-18 17:00:00 5.6 9 Noroeste 30 Noroeste 0 893.2 1.1 60
2019-11-18 16:00:00 5.9 19 Noroeste 37 Noroeste 0 892.7 0.9 60
2019-11-18 15:00:00 5.7 15 Noroeste 27 Noroeste 0 892.5 0.5 65
2019-11-18 14:00:00 5.5 12 Noroeste 31 Noroeste 0 892.1 0 66
2019-11-18 13:00:00 5 12 Noroeste 33 Oeste 0 891.8 0.5 69
2019-11-18 12:00:00 3.9 14 Noroeste 32 Norte 0 892 1.1 73
2019-11-18 11:00:00 3.2 4 Oeste 17 Sudoeste 0 892.1 2.1 78
2019-11-18 10:00:00 2.4 5 Oeste 13 Noroeste 0 891.3 1.4 90
2019-11-18 09:00:00 0.7 5 Oeste 10 Oeste 0 890.9 1.4 95
2019-11-18 08:00:00 1 3 Noroeste 14 Noroeste 0 890 1 90
2019-11-18 07:00:00 1.9 8 Noroeste 19 Norte 0 889.9 1.2 92
2019-11-18 06:00:00 1.8 7 Noroeste 19 Noroeste 0 889.5 0.9 92
2019-11-18 05:00:00 1.7 6 Oeste 14 Oeste 0 889 0.6 92
2019-11-18 04:00:00 1.5 4 Oeste 13 Oeste 0 888.7 0.3 93
2019-11-18 03:00:00 0.9 2 Este 12 Oeste 0 888.6 0.3 96
2019-11-18 02:00:00 1.4 4 Noroeste 14 Sudoeste 0 888.4 0.2 95
2019-11-18 01:00:00 0.8 5 Oeste 10 Oeste 0 888.4 0 97
2019-11-18 00:00:00 1.6 2 Norte 8 Noroeste 0 888.3 -0.3 92
2019-11-17 23:00:00 3.4 4 Oeste 12 Oeste 0.2 888.2 -0.2 90
2019-11-17 22:00:00 4.5 9 Oeste 25 Noroeste 0.4 888.4 -0.2 94
2019-11-17 21:00:00 4.5 4 Sudoeste 17 Oeste 0 888.6 -0.4 95
2019-11-17 20:00:00 4.3 6 Sudoeste 16 Sudoeste 0 888.4 -0.8 94
2019-11-17 19:00:00 4 5 Sudoeste 15 Oeste 0 888.6 -0.8 91
2019-11-17 18:00:00 3.8 8 Oeste 22 Oeste 0.2 889 -0.8 93
2019-11-17 17:00:00 4.1 13 Oeste 24 Oeste 0 889.2 -0.8 89
2019-11-17 16:00:00 3.8 13 Oeste 25 Oeste 0.2 889.4 -0.9 90
2019-11-17 15:00:00 3.8 11 Oeste 32 Sudoeste 0.6 889.8 -1.6 89
2019-11-17 14:00:00 5.7 10 Sudoeste 35 Oeste 0 890 -1.8 74
2019-11-17 13:00:00 7 13 Oeste 32 Oeste 0 890.3 -1.6 66
2019-11-17 12:00:00 6.3 15 Oeste 31 Oeste 0 891.4 -0.5 70
2019-11-17 11:00:00 4.3 14 Oeste 32 Oeste 0 891.8 0.1 71
2019-11-17 10:00:00 1.8 14 Oeste 25 Oeste 0 891.9 -0.1 82
2019-11-17 09:00:00 -0.3 5 Oeste 12 Oeste 0 891.9 -0.1 86
2019-11-17 08:00:00 -0.7 6 Oeste 15 Oeste 0 891.7 -0.5 85
2019-11-17 07:00:00 -1.3 3 Oeste 13 Oeste 0 892 -0.4 90
2019-11-17 06:00:00 -3.2 3 Sudeste 5 Sudoeste 0 892 -0.5 94
2019-11-17 05:00:00 -2.7 0 Calma 9 Oeste 0 892.2 -0.5 90
2019-11-17 04:00:00 -2 3 Sudoeste 9 Oeste 0 892.4 -0.7 90
2019-11-17 03:00:00 -2.2 4 Oeste 9 Sudoeste 0 892.5 -0.8 93
2019-11-17 02:00:00 -2 2 Sudeste 4 Sudeste 0 892.7 -0.6 90
2019-11-17 01:00:00 -0.8 0 Calma 5 Sudeste 0 893.1 -0.1 85
2019-11-17 00:00:00 0.5 2 Oeste 9 Sudoeste 0 893.3 0.2 81
2019-11-16 23:00:00 1.4 4 Oeste 15 Oeste 0 893.3 0.3 77
2019-11-16 22:00:00 1.5 9 Oeste 20 Oeste 0 893.2 0.6 75
2019-11-16 21:00:00 2 7 Oeste 18 Oeste 0 893.1 0.6 72
2019-11-16 20:00:00 2.3 5 Oeste 21 Oeste 0 893 0.8 71
2019-11-16 19:00:00 3.1 9 Oeste 18 Oeste 0 892.6 0.9 67
2019-11-16 18:00:00 4.1 7 Oeste 26 Oeste 0 892.5 1.1 64
2019-11-16 17:00:00 5.3 12 Oeste 28 Oeste 0 892.2 0.6 58
2019-11-16 16:00:00 6.4 10 Noroeste 28 Noroeste 0 891.7 0 58
2019-11-16 15:00:00 5.5 7 Oeste 21 Oeste 0 891.4 -1.2 61
2019-11-16 14:00:00 5.5 9 Noroeste 19 Oeste 0 891.6 -0.2 62
2019-11-16 13:00:00 4.9 7 Sudoeste 20 Oeste 0 891.7 0.4 68
2019-11-16 12:00:00 2.4 8 Oeste 18 Sudoeste 0 892.6 1.8 77
2019-11-16 11:00:00 1.7 7 Sudoeste 14 Oeste 0 891.8 1.6 81
2019-11-16 10:00:00 0.2 6 Sudoeste 15 Oeste 0 891.3 2 89
2019-11-16 09:00:00 -1.3 3 Noroeste 7 Oeste 0 890.8 2.3 92
2019-11-16 08:00:00 -1.1 2 Sudoeste 10 Noroeste 0 890.2 2.3 90
2019-11-16 07:00:00 -0.3 4 Norte 15 Oeste 0 889.3 1.8 88
2019-11-16 06:00:00 0.7 5 Oeste 16 Oeste 0 888.5 1.5 89
2019-11-16 05:00:00 1 4 Noroeste 14 Norte 0 887.9 1.3 89
2019-11-16 04:00:00 0.9 3 Oeste 12 Oeste 0 887.5 1.3 92
2019-11-16 03:00:00 0.8 4 Oeste 10 Oeste 0 887 0.9 94
2019-11-16 02:00:00 0.7 0 Calma 12 Oeste 0 886.6 0.9 93
2019-11-16 01:00:00 1 5 Sudoeste 11 Sudoeste 0 886.2 1 92
2019-11-16 00:00:00 1.2 4 Oeste 16 Oeste 0 886.1 1.4 93
2019-11-15 23:00:00 1.3 4 Oeste 18 Noroeste 0.8 885.7 1.5 92
2019-11-15 22:00:00 2.8 3 Noroeste 8 Oeste 0 885.2 1.3 81
2019-11-15 21:00:00 3.1 5 Oeste 15 Oeste 0 884.7 1.4 78
2019-11-15 20:00:00 3.1 6 Oeste 20 Noroeste 0 884.2 1.4 75
2019-11-15 19:00:00 2.7 7 Oeste 16 Oeste 0 883.9 1.4 77
2019-11-15 18:00:00 3.4 8 Oeste 25 Oeste 0 883.3 1 73
2019-11-15 17:00:00 4.9 12 Oeste 26 Oeste 0 882.8 0.7 67
2019-11-15 16:00:00 5.2 11 Oeste 33 Oeste 0 882.5 0.2 66
2019-11-15 15:00:00 4.6 16 Oeste 34 Noroeste 0 882.3 -0.3 69
2019-11-15 14:00:00 4.9 13 Oeste 33 Oeste 0 882.1 -0.7 70
2019-11-15 13:00:00 5.5 17 Oeste 35 Oeste 0 882.3 -0.1 71
2019-11-15 12:00:00 3.8 14 Oeste 27 Noroeste 0 882.6 0.2 82
2019-11-15 11:00:00 2.9 14 Oeste 26 Oeste 0 882.8 1.2 86
2019-11-15 10:00:00 1.8 10 Oeste 19 Sudoeste 0 882.4 1 89
2019-11-15 09:00:00 1 10 Oeste 19 Oeste 0 882.4 1 90
2019-11-15 08:00:00 0.7 8 Oeste 17 Oeste 0 881.6 0.2 90
2019-11-15 07:00:00 0.7 9 Oeste 27 Oeste 0 881.4 0.3 89
2019-11-15 06:00:00 0.4 8 Oeste 17 Oeste 0 881.4 0.5 88
2019-11-15 05:00:00 0.4 8 Oeste 22 Sudoeste 0 881.4 0.8 86
2019-11-15 04:00:00 0.6 7 Oeste 18 Oeste 0 881.1 0.5 88
2019-11-15 03:00:00 0.7 5 Oeste 14 Oeste 0 880.9 0.8 95
2019-11-15 02:00:00 0.7 9 Oeste 17 Oeste 0 880.6 0.6 92
2019-11-15 01:00:00 0.7 9 Oeste 17 Oeste 0 880.6 1.6 92
2019-11-15 00:00:00 0.5 9 Oeste 22 Oeste 0 880.1 1.8 88